Bridgeport, Michigan
Current Conditions -  °F | °C
As of 2:15 PM on Thursday 18 Dec 2014 (Local Time) from KHYX Reporting Station
Overcast Overcast  
Wind Chill: 25°   Ceiling: 1000
Heat Index: 30°   Visibility: 10mi
Dew Point: 30°   Wind: 5mph
Humidity: 100%   Direction: 350°N
Pressure: 30.16"   Gusts: NA
Location:  43.36°N, 83.88°W
Report Text: KHYX 181915Z AUTO 35004KT 10SM OVC010 M01/M01 A3016 RMK AO2
Loading
Personal Weather Stations






























Interactive Weather Map New forecast layout! Learn more

10-Day Weather Forecast

Advertisements
Track Severe Weather on mobile